createdAt,value
2018-04-25T00:00:53.798Z,13.53
2018-04-25T00:01:53.791Z,13.52
2018-04-25T00:02:53.795Z,13.54
2018-04-25T00:03:53.791Z,13.49
2018-04-25T00:04:53.791Z,13.53
2018-04-25T00:05:53.788Z,13.60
2018-04-25T00:06:53.793Z,13.56
2018-04-25T00:07:53.792Z,13.54
2018-04-25T00:08:53.788Z,13.56
2018-04-25T00:09:53.786Z,13.57
2018-04-25T00:10:53.785Z,13.62
2018-04-25T00:11:53.789Z,13.60
2018-04-25T00:12:53.785Z,13.67
2018-04-25T00:13:53.784Z,13.57
2018-04-25T00:14:53.803Z,13.60
2018-04-25T00:15:53.819Z,13.63
2018-04-25T00:16:53.785Z,13.62
2018-04-25T00:17:53.783Z,13.63
2018-04-25T00:18:53.790Z,13.65
2018-04-25T00:19:53.788Z,13.70
2018-04-25T00:20:53.782Z,13.63
2018-04-25T00:21:53.819Z,13.65
2018-04-25T00:22:53.781Z,13.71
2018-04-25T00:23:53.779Z,13.63
2018-04-25T00:24:54.240Z,13.63
2018-04-25T00:25:53.782Z,13.67
2018-04-25T00:26:53.943Z,13.72
2018-04-25T00:27:53.802Z,13.71
2018-04-25T00:28:53.779Z,13.74
2018-04-25T00:29:53.776Z,13.67
2018-04-25T00:30:53.775Z,13.67
2018-04-25T00:31:53.779Z,13.65
2018-04-25T00:32:53.779Z,13.70
2018-04-25T00:33:53.804Z,13.67
2018-04-25T00:34:53.773Z,13.70
2018-04-25T00:35:53.773Z,13.72
2018-04-25T00:36:53.773Z,13.71
2018-04-25T00:37:53.772Z,13.70
2018-04-25T00:38:53.771Z,13.70
2018-04-25T00:39:53.778Z,13.70
2018-04-25T00:40:53.771Z,13.67
2018-04-25T00:41:53.769Z,13.67
2018-04-25T00:42:53.769Z,13.68
2018-04-25T00:43:53.769Z,13.71
2018-04-25T00:44:53.769Z,13.71
2018-04-25T00:45:53.781Z,13.65
2018-04-25T00:46:53.767Z,13.71
2018-04-25T00:47:53.769Z,13.70
2018-04-25T00:48:53.776Z,13.62
2018-04-25T00:49:53.764Z,13.68
2018-04-25T00:50:53.763Z,13.70
2018-04-25T00:51:53.774Z,13.67
2018-04-25T00:52:53.764Z,13.56
2018-04-25T00:53:53.765Z,13.68
2018-04-25T00:54:53.797Z,13.68
2018-04-25T00:55:54.670Z,13.67
2018-04-25T00:56:53.767Z,13.60
2018-04-25T00:57:53.759Z,13.59
2018-04-25T00:58:53.758Z,13.65
2018-04-25T00:59:53.785Z,13.62
2018-04-25T01:00:53.759Z,13.62
2018-04-25T01:01:53.785Z,13.65
2018-04-25T01:02:53.764Z,13.72
2018-04-25T01:03:53.754Z,13.65
2018-04-25T01:04:53.757Z,13.62
2018-04-25T01:05:53.761Z,13.68
2018-04-25T01:06:53.752Z,13.65
2018-04-25T01:07:53.750Z,13.59
2018-04-25T01:08:53.782Z,13.54
2018-04-25T01:09:53.750Z,13.63
2018-04-25T01:10:53.752Z,13.56
2018-04-25T01:11:53.769Z,13.49
2018-04-25T01:12:53.747Z,13.52
2018-04-25T01:13:53.745Z,13.57
2018-04-25T01:14:53.751Z,13.49
2018-04-25T01:15:53.750Z,13.50
2018-04-25T01:16:53.762Z,13.49
2018-04-25T01:17:53.741Z,13.37
2018-04-25T01:18:53.740Z,13.44
2018-04-25T01:19:53.740Z,13.44
2018-04-25T01:20:53.747Z,13.39
2018-04-25T01:21:53.738Z,13.41
2018-04-25T01:22:53.739Z,13.41
2018-04-25T01:23:53.737Z,13.38
2018-04-25T01:24:53.737Z,13.41
2018-04-25T01:25:53.738Z,13.38
2018-04-25T01:26:53.736Z,13.35
2018-04-25T01:27:53.733Z,13.35
2018-04-25T01:28:53.733Z,13.38
2018-04-25T01:29:53.730Z,13.41
2018-04-25T01:30:53.733Z,13.41
2018-04-25T01:31:53.738Z,13.38
2018-04-25T01:32:53.729Z,13.41
2018-04-25T01:33:53.730Z,13.28
2018-04-25T01:34:53.726Z,13.37
2018-04-25T01:35:53.728Z,13.39
2018-04-25T01:36:53.725Z,13.28
2018-04-25T01:37:53.723Z,13.28
2018-04-25T01:38:53.725Z,13.19
2018-04-25T01:39:53.724Z,13.23
2018-04-25T01:40:53.721Z,13.23
2018-04-25T01:41:53.721Z,13.25
2018-04-25T01:42:53.719Z,13.23
2018-04-25T01:43:53.718Z,13.25
2018-04-25T01:44:53.720Z,13.23
2018-04-25T01:45:53.719Z,13.37
2018-04-25T01:46:53.714Z,13.35
2018-04-25T01:47:53.714Z,13.37
2018-04-25T01:48:53.714Z,13.31
2018-04-25T01:49:53.711Z,13.37
2018-04-25T01:50:53.710Z,13.30
2018-04-25T01:51:53.709Z,13.31
2018-04-25T01:52:53.718Z,13.27
2018-04-25T01:53:53.707Z,13.33
2018-04-25T01:54:53.706Z,13.41
2018-04-25T01:55:53.705Z,13.27
2018-04-25T01:56:53.706Z,13.31
2018-04-25T01:57:53.703Z,13.37
2018-04-25T01:58:53.708Z,13.38
2018-04-25T01:59:53.703Z,13.37
2018-04-25T02:00:53.706Z,13.33
2018-04-25T02:01:53.699Z,13.35
2018-04-25T02:02:53.698Z,13.38
2018-04-25T02:03:53.697Z,13.41
2018-04-25T02:04:53.699Z,13.42
2018-04-25T02:05:53.698Z,13.33
2018-04-25T02:06:53.699Z,13.41
2018-04-25T02:07:53.695Z,13.38
2018-04-25T02:08:53.699Z,13.37
2018-04-25T02:09:53.693Z,13.37
2018-04-25T02:10:53.696Z,13.28
2018-04-25T02:11:53.694Z,13.23
2018-04-25T02:12:53.695Z,13.28
2018-04-25T02:13:53.690Z,13.22
2018-04-25T02:14:53.689Z,13.22
2018-04-25T02:15:53.688Z,13.15
2018-04-25T02:16:53.689Z,13.22
2018-04-25T02:17:53.687Z,13.09
2018-04-25T02:18:53.685Z,13.20
2018-04-25T02:19:53.688Z,13.03
2018-04-25T02:20:53.685Z,13.04
2018-04-25T02:21:53.684Z,13.13
2018-04-25T02:22:53.682Z,13.11
2018-04-25T02:23:53.684Z,13.03
2018-04-25T02:24:53.680Z,13.18
2018-04-25T02:25:53.680Z,13.05
2018-04-25T02:26:53.680Z,13.11
2018-04-25T02:27:53.806Z,13.00
2018-04-25T02:28:53.677Z,13.05
2018-04-25T02:29:53.675Z,13.03
2018-04-25T02:30:53.677Z,13.05
2018-04-25T02:31:53.675Z,13.05
2018-04-25T02:32:53.673Z,13.04
2018-04-25T02:33:53.672Z,12.98
2018-04-25T02:34:53.673Z,12.94
2018-04-25T02:35:53.670Z,13.01
2018-04-25T02:36:53.677Z,12.91
2018-04-25T02:37:53.667Z,12.97
2018-04-25T02:38:53.668Z,12.98
2018-04-25T02:39:53.679Z,12.95
2018-04-25T02:40:53.668Z,12.95
2018-04-25T02:41:53.662Z,12.93
2018-04-25T02:42:53.660Z,12.93
2018-04-25T02:43:53.663Z,12.94
2018-04-25T02:44:53.663Z,13.00
2018-04-25T02:45:53.678Z,12.98
2018-04-25T02:46:53.665Z,13.00
2018-04-25T02:47:53.657Z,13.01
2018-04-25T02:48:53.655Z,13.03
2018-04-25T02:49:53.653Z,13.03
2018-04-25T02:50:53.652Z,13.09
2018-04-25T02:51:53.654Z,13.03
2018-04-25T02:52:53.654Z,13.05
2018-04-25T02:53:53.661Z,13.08
2018-04-25T02:54:53.647Z,13.04
2018-04-25T02:55:53.646Z,13.03
2018-04-25T02:56:53.645Z,13.11
2018-04-25T02:57:53.642Z,13.12
2018-04-25T02:58:54.222Z,13.04
2018-04-25T02:59:53.640Z,13.09
2018-04-25T03:00:53.641Z,13.04
2018-04-25T03:01:53.636Z,13.11
2018-04-25T03:02:53.637Z,13.11
2018-04-25T03:03:53.640Z,13.23
2018-04-25T03:04:53.634Z,13.08
2018-04-25T03:05:53.645Z,13.13
2018-04-25T03:06:53.639Z,13.15
2018-04-25T03:07:53.628Z,13.04
2018-04-25T03:08:53.627Z,13.08
2018-04-25T03:09:53.625Z,13.15
2018-04-25T03:10:53.625Z,13.09
2018-04-25T03:11:53.628Z,13.16
2018-04-25T03:12:53.624Z,13.11
2018-04-25T03:13:53.622Z,13.15
2018-04-25T03:14:53.619Z,13.00
2018-04-25T03:15:53.617Z,13.11
2018-04-25T03:16:53.670Z,13.13
2018-04-25T03:17:53.613Z,13.13
2018-04-25T03:18:53.614Z,13.18
2018-04-25T03:19:53.620Z,13.01
2018-04-25T03:20:53.614Z,12.98
2018-04-25T03:21:53.611Z,13.03
2018-04-25T03:22:53.612Z,13.03
2018-04-25T03:23:53.607Z,13.01
2018-04-25T03:24:53.606Z,12.98
2018-04-25T03:25:53.602Z,13.00
2018-04-25T03:26:53.602Z,13.00
2018-04-25T03:27:53.606Z,12.98
2018-04-25T03:28:53.599Z,12.98
2018-04-25T03:29:54.591Z,12.93
2018-04-25T03:30:53.597Z,12.94
2018-04-25T03:31:53.596Z,12.87
2018-04-25T03:32:53.600Z,12.94
2018-04-25T03:33:53.591Z,12.95
2018-04-25T03:34:53.589Z,12.97
2018-04-25T03:35:53.596Z,12.80
2018-04-25T03:36:53.587Z,12.94
2018-04-25T03:37:53.584Z,12.90
2018-04-25T03:38:53.586Z,12.85
2018-04-25T03:39:53.581Z,12.85
2018-04-25T03:40:53.581Z,12.82
2018-04-25T03:41:53.583Z,12.79
2018-04-25T03:42:53.581Z,12.79
2018-04-25T03:43:53.579Z,12.75
2018-04-25T03:44:53.575Z,12.70
2018-04-25T03:45:53.577Z,12.72
2018-04-25T03:46:53.570Z,12.70
2018-04-25T03:47:53.569Z,12.72
2018-04-25T03:48:53.567Z,12.72
2018-04-25T03:49:53.565Z,12.72
2018-04-25T03:50:53.563Z,12.70
2018-04-25T03:51:53.564Z,12.75
2018-04-25T03:52:53.560Z,12.73
2018-04-25T03:53:53.559Z,12.76
2018-04-25T03:54:53.557Z,12.70
2018-04-25T03:55:53.556Z,12.73
2018-04-25T03:56:53.566Z,12.72
2018-04-25T03:57:53.553Z,12.75
2018-04-25T03:58:53.559Z,12.68
2018-04-25T03:59:53.546Z,12.78
2018-04-25T04:00:53.548Z,12.70
2018-04-25T04:01:53.928Z,12.70
2018-04-25T04:02:53.544Z,12.70
2018-04-25T04:03:53.546Z,12.67
2018-04-25T04:04:53.539Z,12.73
2018-04-25T04:05:53.541Z,12.72
2018-04-25T04:06:53.535Z,12.73
2018-04-25T04:07:53.536Z,12.83
2018-04-25T04:08:53.532Z,12.87
2018-04-25T04:09:53.535Z,12.82
2018-04-25T04:10:53.534Z,12.78
2018-04-25T04:11:53.527Z,12.83
2018-04-25T04:12:53.592Z,12.85
2018-04-25T04:13:53.523Z,12.85
2018-04-25T04:14:53.521Z,12.79
2018-04-25T04:15:53.520Z,12.83
2018-04-25T04:16:53.518Z,12.85
2018-04-25T04:17:53.519Z,12.79
2018-04-25T04:18:53.514Z,12.79
2018-04-25T04:19:53.512Z,12.85
2018-04-25T04:20:53.511Z,12.86
2018-04-25T04:21:53.515Z,12.85
2018-04-25T04:22:53.507Z,12.83
2018-04-25T04:23:53.508Z,12.79
2018-04-25T04:24:53.557Z,12.85
2018-04-25T04:25:53.504Z,12.73
2018-04-25T04:26:53.505Z,12.86
2018-04-25T04:27:53.499Z,12.78
2018-04-25T04:28:53.497Z,12.87
2018-04-25T04:29:53.496Z,12.82
2018-04-25T04:30:53.497Z,12.83
2018-04-25T04:31:53.492Z,12.87
2018-04-25T04:32:53.494Z,12.90
2018-04-25T04:33:53.533Z,12.94
2018-04-25T04:34:53.487Z,12.93
2018-04-25T04:35:53.487Z,12.98
2018-04-25T04:36:53.486Z,13.08
2018-04-25T04:37:53.482Z,13.03
2018-04-25T04:38:53.486Z,13.05
2018-04-25T04:39:53.481Z,13.05
2018-04-25T04:40:53.478Z,13.18
2018-04-25T04:41:53.475Z,13.09
2018-04-25T04:42:53.476Z,13.19
2018-04-25T04:43:53.479Z,13.11
2018-04-25T04:44:53.474Z,13.09
2018-04-25T04:45:53.475Z,13.15
2018-04-25T04:46:53.473Z,13.19
2018-04-25T04:47:53.474Z,13.19
2018-04-25T04:48:53.469Z,13.22
2018-04-25T04:49:53.464Z,13.22
2018-04-25T04:50:53.463Z,13.28
2018-04-25T04:51:53.480Z,13.16
2018-04-25T04:52:53.461Z,13.15
2018-04-25T04:53:53.459Z,13.23
2018-04-25T04:54:53.457Z,13.16
2018-04-25T04:55:53.456Z,13.22
2018-04-25T04:56:53.461Z,13.16
2018-04-25T04:57:53.454Z,13.16
2018-04-25T04:58:53.478Z,13.19
2018-04-25T04:59:53.450Z,13.27
2018-04-25T05:00:53.451Z,13.20
2018-04-25T05:01:53.745Z,13.39
2018-04-25T05:02:53.449Z,13.41
2018-04-25T05:03:53.444Z,13.41
2018-04-25T05:04:53.456Z,13.42
2018-04-25T05:05:53.443Z,13.54
2018-04-25T05:06:55.019Z,13.62
2018-04-25T05:07:53.442Z,13.68
2018-04-25T05:08:53.439Z,13.68
2018-04-25T05:09:53.442Z,13.71
2018-04-25T05:10:53.460Z,13.75
2018-04-25T05:11:53.438Z,13.68
2018-04-25T05:12:53.434Z,13.72
2018-04-25T05:13:53.434Z,13.72
2018-04-25T05:14:53.436Z,13.71
2018-04-25T05:15:53.440Z,13.83
2018-04-25T05:16:53.437Z,13.81
2018-04-25T05:17:53.433Z,13.83
2018-04-25T05:18:53.428Z,13.96
2018-04-25T05:19:53.429Z,14.03
2018-04-25T05:20:53.427Z,14.05
2018-04-25T05:21:53.427Z,14.10
2018-04-25T05:22:53.439Z,14.17
2018-04-25T05:23:53.428Z,14.18
2018-04-25T05:24:53.427Z,14.28
2018-04-25T05:25:53.423Z,14.43
2018-04-25T05:26:53.424Z,14.41
2018-04-25T05:27:53.424Z,14.48
2018-04-25T05:28:53.424Z,14.78
2018-04-25T05:29:53.424Z,15.28
2018-04-25T05:30:53.420Z,15.64
2018-04-25T05:31:53.429Z,15.59
2018-04-25T05:32:54.150Z,15.58
2018-04-25T05:33:53.419Z,15.59
2018-04-25T05:34:53.420Z,15.46
2018-04-25T05:35:53.421Z,15.40
2018-04-25T05:36:53.421Z,15.33
2018-04-25T05:37:53.420Z,15.46
2018-04-25T05:38:53.508Z,15.52
2018-04-25T05:39:53.418Z,15.64
2018-04-25T05:40:53.420Z,15.58
2018-04-25T05:41:53.431Z,15.52
2018-04-25T05:42:53.420Z,15.25
2018-04-25T05:43:53.438Z,15.27
2018-04-25T05:44:53.443Z,15.11
2018-04-25T05:45:53.465Z,15.11
2018-04-25T05:46:53.421Z,15.02
2018-04-25T05:47:53.420Z,14.96
2018-04-25T05:48:53.430Z,15.06
2018-04-25T05:49:53.420Z,15.03
2018-04-25T05:50:53.426Z,15.09
2018-04-25T05:51:53.633Z,15.21
2018-04-25T05:52:53.620Z,15.33
2018-04-25T05:53:53.424Z,15.27
2018-04-25T05:54:53.421Z,15.37
2018-04-25T05:55:53.423Z,15.31
2018-04-25T05:56:53.425Z,15.36
2018-04-25T05:57:53.485Z,15.44
2018-04-25T05:58:53.423Z,15.40
2018-04-25T05:59:53.422Z,15.42
2018-04-25T06:00:53.424Z,15.44
2018-04-25T06:01:53.423Z,15.43
2018-04-25T06:02:53.430Z,15.54
2018-04-25T06:03:53.439Z,15.55
2018-04-25T06:04:53.469Z,15.64
2018-04-25T06:05:53.440Z,15.62
2018-04-25T06:06:53.846Z,15.83
2018-04-25T06:07:53.424Z,15.67
2018-04-25T06:08:53.430Z,15.79
2018-04-25T06:09:53.430Z,15.75
2018-04-25T06:10:53.426Z,15.82
2018-04-25T06:11:53.489Z,15.80
2018-04-25T06:12:53.448Z,15.86
2018-04-25T06:13:53.427Z,15.91
2018-04-25T06:14:53.429Z,16.02
2018-04-25T06:15:53.561Z,16.00
2018-04-25T06:16:53.434Z,16.04
2018-04-25T06:17:53.501Z,16.10
2018-04-25T06:18:53.433Z,16.23
2018-04-25T06:19:53.433Z,16.31
2018-04-25T06:20:53.433Z,16.42
2018-04-25T06:21:53.435Z,16.46
2018-04-25T06:22:54.467Z,16.51
2018-04-25T06:23:53.446Z,16.53
2018-04-25T06:24:53.441Z,16.69
2018-04-25T06:25:53.515Z,16.68
2018-04-25T06:26:53.444Z,16.74
2018-04-25T06:27:53.442Z,16.84
2018-04-25T06:28:53.442Z,16.89
2018-04-25T06:29:53.443Z,16.94
2018-04-25T06:30:53.449Z,16.99
2018-04-25T06:31:53.459Z,17.04
2018-04-25T06:32:53.447Z,16.96
2018-04-25T06:33:53.498Z,17.12
2018-04-25T06:34:53.528Z,17.09
2018-04-25T06:35:53.456Z,17.27
2018-04-25T06:36:54.612Z,17.26
2018-04-25T06:37:53.546Z,17.33
2018-04-25T06:38:53.457Z,17.38
2018-04-25T06:39:53.460Z,17.39
2018-04-25T06:40:53.460Z,17.48
2018-04-25T06:41:53.475Z,17.57
2018-04-25T06:42:54.086Z,17.52
2018-04-25T06:43:53.465Z,17.48
2018-04-25T06:44:53.489Z,17.59
2018-04-25T06:45:53.469Z,17.65
2018-04-25T06:46:53.469Z,17.60
2018-04-25T06:47:53.470Z,17.65
2018-04-25T06:48:53.472Z,17.57
2018-04-25T06:49:53.472Z,17.64
2018-04-25T06:50:53.473Z,17.60
2018-04-25T06:51:53.481Z,17.70
2018-04-25T06:52:53.479Z,17.78
2018-04-25T06:53:53.479Z,17.74
2018-04-25T06:54:53.484Z,17.74
2018-04-25T06:55:53.483Z,17.71
2018-04-25T06:56:53.485Z,17.71
2018-04-25T06:57:53.487Z,17.68
2018-04-25T06:58:53.508Z,17.70
2018-04-25T06:59:53.491Z,17.57
2018-04-25T07:00:53.496Z,17.56
2018-04-25T07:01:53.496Z,17.63
2018-04-25T07:02:53.507Z,17.60
2018-04-25T07:03:53.500Z,17.60
2018-04-25T07:04:53.500Z,17.57
2018-04-25T07:05:53.502Z,17.63
2018-04-25T07:06:53.504Z,17.59
2018-04-25T07:07:53.525Z,17.67
2018-04-25T07:08:53.507Z,17.65
2018-04-25T07:09:53.532Z,17.71
2018-04-25T07:10:53.528Z,17.71
2018-04-25T07:11:53.513Z,17.79
2018-04-25T07:12:53.518Z,17.85
2018-04-25T07:13:53.526Z,17.89
2018-04-25T07:14:53.525Z,17.82
2018-04-25T07:15:53.519Z,17.83
2018-04-25T07:16:53.523Z,17.86
2018-04-25T07:17:53.538Z,17.95
2018-04-25T07:18:53.525Z,17.90
2018-04-25T07:19:53.527Z,17.98
2018-04-25T07:20:53.531Z,18.00
2018-04-25T07:21:53.532Z,18.07
2018-04-25T07:22:53.535Z,18.15
2018-04-25T07:23:53.566Z,18.15
2018-04-25T07:24:53.537Z,18.15
2018-04-25T07:25:53.540Z,18.16
2018-04-25T07:26:53.540Z,18.26
2018-04-25T07:27:53.548Z,18.18
2018-04-25T07:28:53.553Z,18.29
2018-04-25T07:29:53.545Z,18.20
2018-04-25T07:30:53.554Z,18.25
2018-04-25T07:31:53.558Z,18.26
2018-04-25T07:32:53.558Z,18.23
2018-04-25T07:33:53.581Z,18.26
2018-04-25T07:34:53.557Z,18.37
2018-04-25T07:35:53.732Z,18.41
2018-04-25T07:36:53.564Z,18.40
2018-04-25T07:37:53.562Z,18.44
2018-04-25T07:38:53.564Z,18.47
2018-04-25T07:39:53.570Z,18.53
2018-04-25T07:40:53.567Z,18.58
2018-04-25T07:41:53.610Z,18.58
2018-04-25T07:42:53.574Z,18.66
2018-04-25T07:43:53.578Z,18.66
2018-04-25T07:44:53.577Z,18.77
2018-04-25T07:45:53.592Z,18.80
2018-04-25T07:46:53.585Z,18.88
2018-04-25T07:47:53.583Z,18.89
2018-04-25T07:48:53.585Z,19.07
2018-04-25T07:49:53.587Z,19.09
2018-04-25T07:50:53.616Z,19.14
2018-04-25T07:51:53.591Z,19.09
2018-04-25T07:52:53.594Z,19.00
2018-04-25T07:53:53.594Z,19.07
2018-04-25T07:54:53.602Z,19.12
2018-04-25T07:55:53.604Z,19.12
2018-04-25T07:56:53.604Z,19.14
2018-04-25T07:57:53.636Z,19.16
2018-04-25T07:58:53.609Z,19.16
2018-04-25T07:59:53.610Z,19.11
2018-04-25T08:00:53.615Z,19.14
2018-04-25T08:01:53.615Z,19.24
2018-04-25T08:02:53.617Z,19.27
2018-04-25T08:03:53.618Z,19.36
2018-04-25T08:04:53.639Z,19.37
2018-04-25T08:05:53.704Z,19.36
2018-04-25T08:06:54.136Z,19.39
2018-04-25T08:07:53.629Z,19.52
2018-04-25T08:08:53.661Z,19.58
2018-04-25T08:09:53.635Z,19.69
2018-04-25T08:10:53.642Z,19.79
2018-04-25T08:11:53.649Z,19.81
2018-04-25T08:12:53.648Z,19.86
2018-04-25T08:13:53.645Z,19.99
2018-04-25T08:14:53.695Z,19.95
2018-04-25T08:15:53.677Z,20.03
2018-04-25T08:16:53.669Z,19.99
2018-04-25T08:17:53.663Z,20.02
2018-04-25T08:18:53.658Z,20.09
2018-04-25T08:19:53.661Z,20.10
2018-04-25T08:20:53.671Z,20.10
2018-04-25T08:21:53.667Z,20.11
2018-04-25T08:22:53.672Z,20.18
2018-04-25T08:23:53.678Z,20.26
2018-04-25T08:24:53.687Z,20.37
2018-04-25T08:25:53.685Z,20.37
2018-04-25T08:26:53.686Z,20.41
2018-04-25T08:27:53.687Z,20.32
2018-04-25T08:28:53.692Z,20.31
2018-04-25T08:29:53.700Z,20.36
2018-04-25T08:30:53.697Z,20.36
2018-04-25T08:31:53.701Z,20.26
2018-04-25T08:32:53.715Z,20.22
2018-04-25T08:33:53.821Z,20.21
2018-04-25T08:34:53.778Z,20.09
2018-04-25T08:35:53.726Z,20.03
2018-04-25T08:36:53.717Z,19.88
2018-04-25T08:37:54.623Z,19.95
2018-04-25T08:38:53.731Z,19.89
2018-04-25T08:39:53.731Z,19.92
2018-04-25T08:40:53.757Z,20.00
2018-04-25T08:41:53.734Z,20.06
2018-04-25T08:42:53.748Z,20.09
2018-04-25T08:43:53.746Z,20.07
2018-04-25T08:44:53.880Z,20.13
2018-04-25T08:45:56.739Z,20.21
2018-04-25T08:46:54.753Z,20.41
2018-04-25T08:47:55.582Z,20.36
2018-04-25T08:48:53.766Z,20.32
2018-04-25T08:49:53.777Z,20.47
2018-04-25T08:50:53.768Z,20.43
2018-04-25T08:51:53.767Z,20.44
2018-04-25T08:52:57.132Z,20.37
2018-04-25T08:53:53.848Z,20.37
2018-04-25T08:54:53.785Z,20.32
2018-04-25T08:55:53.781Z,20.44
2018-04-25T08:56:53.785Z,20.74
2018-04-25T08:57:53.919Z,20.99
2018-04-25T08:58:53.793Z,21.18
2018-04-25T08:59:53.796Z,21.37
2018-04-25T09:00:53.819Z,22.35
2018-04-25T09:01:53.804Z,22.90
2018-04-25T09:02:53.813Z,24.03
2018-04-25T09:03:53.837Z,24.42
2018-04-25T09:04:53.822Z,24.76
2018-04-25T09:05:53.853Z,25.50
2018-04-25T09:06:53.870Z,25.29
2018-04-25T09:07:53.835Z,24.33
2018-04-25T09:08:55.133Z,24.23
2018-04-25T09:09:53.841Z,23.83
2018-04-25T09:10:53.963Z,23.20
2018-04-25T09:11:53.929Z,22.90
2018-04-25T09:12:53.923Z,22.38
2018-04-25T09:13:53.863Z,22.17
2018-04-25T09:14:53.874Z,22.00
2018-04-25T09:15:53.875Z,21.80
2018-04-25T09:16:53.883Z,21.66
2018-04-25T09:17:53.885Z,21.50
2018-04-25T09:18:53.958Z,21.39
2018-04-25T09:19:53.896Z,21.30
2018-04-25T09:20:53.903Z,21.33
2018-04-25T09:21:53.911Z,21.36
2018-04-25T09:22:53.964Z,21.32
2018-04-25T09:23:53.925Z,21.40
2018-04-25T09:24:53.922Z,21.50
2018-04-25T09:25:53.928Z,21.50
2018-04-25T09:26:54.012Z,21.50
2018-04-25T09:27:53.939Z,21.48
2018-04-25T09:28:53.943Z,21.50
2018-04-25T09:29:53.945Z,21.69
2018-04-25T09:30:53.954Z,21.60
2018-04-25T09:31:53.961Z,21.75
2018-04-25T09:32:53.993Z,21.85
2018-04-25T09:33:53.972Z,21.85
2018-04-25T09:34:53.971Z,21.85
2018-04-25T09:35:53.984Z,21.79
2018-04-25T09:36:53.986Z,21.79
2018-04-25T09:37:53.980Z,21.70
2018-04-25T09:38:54.093Z,21.85
2018-04-25T09:39:53.994Z,21.95
2018-04-25T09:40:54.249Z,21.98
2018-04-25T09:41:54.000Z,22.04
2018-04-25T09:42:54.043Z,22.04
2018-04-25T09:43:54.010Z,21.99
2018-04-25T09:44:54.609Z,22.02
2018-04-25T09:45:54.123Z,22.14
2018-04-25T09:46:54.028Z,22.11
2018-04-25T09:47:54.028Z,22.10
2018-04-25T09:48:54.068Z,22.10
2018-04-25T09:49:54.042Z,22.11
2018-04-25T09:50:54.075Z,22.07
2018-04-25T09:51:54.133Z,21.99
2018-04-25T09:52:54.104Z,21.95
2018-04-25T09:53:54.098Z,21.73
2018-04-25T09:54:55.596Z,21.75
2018-04-25T09:55:54.065Z,21.66
2018-04-25T09:56:54.095Z,21.60
2018-04-25T09:57:54.121Z,21.64
2018-04-25T09:58:54.159Z,21.61
2018-04-25T09:59:54.089Z,21.55
2018-04-25T10:00:54.395Z,21.70
2018-04-25T10:01:54.092Z,21.70
2018-04-25T10:02:54.097Z,21.82
2018-04-25T10:03:54.160Z,21.88
2018-04-25T10:04:54.335Z,21.91
2018-04-25T10:05:54.115Z,21.89
2018-04-25T10:06:54.119Z,21.82
2018-04-25T10:07:54.541Z,21.76
2018-04-25T10:08:54.284Z,21.95
2018-04-25T10:09:54.136Z,21.83
2018-04-25T10:10:54.193Z,21.95
2018-04-25T10:11:56.267Z,22.08
2018-04-25T10:12:54.143Z,22.18
2018-04-25T10:13:54.149Z,22.32
2018-04-25T10:14:54.157Z,22.32
2018-04-25T10:15:54.159Z,22.32
2018-04-25T10:16:54.162Z,22.38
2018-04-25T10:17:54.173Z,22.33
2018-04-25T10:18:54.172Z,22.32
2018-04-25T10:19:54.181Z,22.28
2018-04-25T10:20:54.203Z,22.29
2018-04-25T10:21:54.213Z,22.32
2018-04-25T10:22:54.191Z,22.22
2018-04-25T10:23:54.224Z,22.17
2018-04-25T10:24:54.204Z,22.11
2018-04-25T10:25:55.767Z,22.20
2018-04-25T10:26:54.214Z,22.11
2018-04-25T10:27:54.215Z,22.22
2018-04-25T10:28:54.259Z,22.15
2018-04-25T10:29:54.227Z,22.36
2018-04-25T10:30:54.257Z,22.30
2018-04-25T10:31:54.312Z,22.41
2018-04-25T10:32:54.249Z,22.47
2018-04-25T10:33:54.307Z,22.59
2018-04-25T10:34:54.256Z,22.65
2018-04-25T10:35:54.261Z,22.53
2018-04-25T10:36:54.261Z,22.38
2018-04-25T10:37:54.265Z,22.33
2018-04-25T10:38:54.276Z,22.30
2018-04-25T10:39:54.299Z,22.28
2018-04-25T10:40:54.443Z,22.20
2018-04-25T10:41:54.318Z,22.10
2018-04-25T10:42:54.291Z,21.99
2018-04-25T10:43:54.301Z,21.96
2018-04-25T10:44:54.302Z,21.98
2018-04-25T10:45:54.401Z,21.89
2018-04-25T10:46:54.403Z,22.17
2018-04-25T10:47:54.320Z,22.91
2018-04-25T10:48:54.359Z,23.47
2018-04-25T10:49:54.332Z,23.83
2018-04-25T10:50:54.348Z,23.66
2018-04-25T10:51:54.337Z,23.59
2018-04-25T10:52:54.341Z,23.62
2018-04-25T10:53:54.346Z,23.63
2018-04-25T10:54:54.352Z,23.59
2018-04-25T10:55:54.564Z,23.59
2018-04-25T10:56:54.382Z,23.48
2018-04-25T10:57:54.372Z,23.47
2018-04-25T10:58:54.375Z,23.37
2018-04-25T10:59:54.460Z,23.32
2018-04-25T11:00:54.388Z,23.32
2018-04-25T11:01:54.397Z,23.28
2018-04-25T11:02:54.401Z,23.34
2018-04-25T11:03:54.956Z,23.25
2018-04-25T11:04:55.136Z,23.37
2018-04-25T11:05:54.421Z,23.21
2018-04-25T11:06:54.436Z,23.20
2018-04-25T11:07:54.432Z,23.10
2018-04-25T11:08:54.437Z,22.98
2018-04-25T11:09:54.439Z,22.90
2018-04-25T11:10:54.450Z,22.66
2018-04-25T11:11:54.939Z,22.45
2018-04-25T11:12:54.475Z,22.39
2018-04-25T11:13:54.464Z,22.35
2018-04-25T11:14:54.468Z,22.17
2018-04-25T11:15:54.499Z,22.10
2018-04-25T11:16:54.563Z,22.02
2018-04-25T11:17:54.490Z,21.88
2018-04-25T11:18:54.486Z,21.72
2018-04-25T11:19:54.495Z,21.67
2018-04-25T11:20:54.507Z,21.69
2018-04-25T11:21:55.138Z,21.54
2018-04-25T11:22:54.508Z,21.42
2018-04-25T11:23:54.513Z,21.45
2018-04-25T11:24:54.519Z,21.33
2018-04-25T11:25:54.523Z,21.27
2018-04-25T11:26:54.533Z,21.29
2018-04-25T11:27:54.532Z,21.20
2018-04-25T11:28:54.536Z,21.17
2018-04-25T11:29:54.539Z,21.18
2018-04-25T11:30:54.543Z,21.07
2018-04-25T11:31:54.620Z,21.15
2018-04-25T11:32:54.555Z,21.05
2018-04-25T11:33:54.560Z,21.09
2018-04-25T11:34:54.562Z,21.02
2018-04-25T11:35:54.570Z,21.11
2018-04-25T11:36:54.576Z,21.11
2018-04-25T11:37:54.572Z,21.07
2018-04-25T11:38:57.144Z,21.24
2018-04-25T11:39:54.583Z,21.33
2018-04-25T11:40:54.588Z,21.52
2018-04-25T11:41:54.594Z,21.62
2018-04-25T11:42:55.491Z,21.46
2018-04-25T11:43:54.600Z,21.52
2018-04-25T11:44:54.615Z,21.52
2018-04-25T11:45:56.148Z,21.61
2018-04-25T11:46:54.618Z,21.69
2018-04-25T11:47:54.621Z,21.62
2018-04-25T11:48:54.630Z,21.57
2018-04-25T11:49:55.172Z,21.66
2018-04-25T11:50:55.533Z,21.62
2018-04-25T11:51:54.637Z,21.52
2018-04-25T11:52:54.640Z,21.54
2018-04-25T11:53:54.668Z,21.60
2018-04-25T11:54:54.649Z,21.60
2018-04-25T11:55:54.655Z,21.52
2018-04-25T11:56:55.135Z,21.57
2018-04-25T11:57:54.672Z,21.51
2018-04-25T11:58:55.688Z,21.57
2018-04-25T11:59:54.674Z,21.50
2018-04-25T12:00:54.677Z,21.52
2018-04-25T12:01:54.919Z,21.42
2018-04-25T12:02:54.857Z,21.54
2018-04-25T12:03:54.691Z,21.52
2018-04-25T12:04:54.705Z,21.57
2018-04-25T12:05:54.700Z,21.57
2018-04-25T12:06:55.198Z,21.55
2018-04-25T12:07:54.711Z,21.57
2018-04-25T12:08:54.950Z,21.64
2018-04-25T12:09:54.718Z,21.75
2018-04-25T12:10:54.725Z,21.72
2018-04-25T12:11:54.728Z,21.75
2018-04-25T12:12:55.657Z,21.88
2018-04-25T12:13:54.774Z,21.75
2018-04-25T12:14:54.742Z,21.73
2018-04-25T12:15:54.746Z,21.72
2018-04-25T12:16:54.751Z,21.70
2018-04-25T12:17:54.760Z,21.62
2018-04-25T12:18:54.765Z,21.61
2018-04-25T12:19:54.771Z,21.61
2018-04-25T12:20:54.769Z,21.54
2018-04-25T12:21:54.773Z,21.42
2018-04-25T12:22:55.659Z,21.54
2018-04-25T12:23:54.816Z,21.46
2018-04-25T12:24:54.788Z,21.50
2018-04-25T12:25:54.793Z,21.52
2018-04-25T12:26:54.818Z,21.46
2018-04-25T12:27:54.802Z,21.57
2018-04-25T12:28:54.810Z,21.64
2018-04-25T12:29:54.810Z,21.85
2018-04-25T12:30:54.815Z,22.00
2018-04-25T12:31:54.828Z,22.28
2018-04-25T12:32:54.825Z,22.35
2018-04-25T12:33:54.830Z,22.44
2018-04-25T12:34:54.840Z,22.47
2018-04-25T12:35:54.900Z,22.44
2018-04-25T12:36:54.922Z,22.38
2018-04-25T12:37:54.892Z,22.41
2018-04-25T12:38:54.856Z,22.47
2018-04-25T12:39:54.864Z,22.51
2018-04-25T12:40:54.865Z,22.38
2018-04-25T12:41:54.869Z,22.28
2018-04-25T12:42:54.895Z,22.22
2018-04-25T12:43:54.956Z,22.11
2018-04-25T12:44:54.914Z,22.14
2018-04-25T12:45:54.966Z,22.04
2018-04-25T12:46:54.890Z,22.10
2018-04-25T12:47:54.897Z,22.07
2018-04-25T12:48:54.917Z,22.00
2018-04-25T12:49:55.062Z,22.00
2018-04-25T12:50:54.911Z,22.04
2018-04-25T12:51:54.916Z,21.98
2018-04-25T12:52:54.930Z,22.08